Terminal Aerodrome Forecast
Issued by NWS

Home | Current Version | Previous Version | Text Only | Print | Product List | Glossary On
Versions: 1 2 3 4 5 6 7 8 9 10 11 12 13 14 15 16 17 18 19 20 21 22 23
000
FTPA31 PHFO 052300
TAFJHM
TAF
PHJH 052333Z 0600/0624 06018G28KT P6SM FEW025 SCT050
     FM060600 06012G22KT P6SM FEW025 SCT050
     FM060900 06010KT P6SM FEW025 SCT050
     FM061900 06014G24KT P6SM FEW025 SCT050
      AMD NOT SKED AFT 060400=

USA.gov is the U.S. government's official web portal to all federal, state and local government web resources and services.